| time (UTC) | temp F | wind direction | speed MPH | gust MPH | rain 1hr in | rain 24hr in | rain mn in | humidity % | barometer mb |
| 20260504205612 | 77 | 127 | 2.0 | 2.0 | 0.00 | 0.00 | 0.00 | 43 | 1017.7 |
| 20260504205109 | 75 | 93 | 2.0 | 3.0 | 0.00 | 0.00 | 0.00 | 43 | 1017.6 |
| 20260504204608 | 76 | 108 | 2.0 | 3.0 | 0.00 | 0.00 | 0.00 | 47 | 1017.7 |
| 20260504204106 | 78 | 145 | 2.0 | 3.0 | 0.00 | 0.00 | 0.00 | 37 | 1017.6 |
| 20260504203604 | 79 | 125 | 1.0 | 2.0 | 0.00 | 0.00 | 0.00 | 35 | 1017.8 |
| 20260504203101 | 79 | 136 | 4.0 | 4.0 | 0.00 | 0.00 | 0.00 | 36 | 1017.8 |
| 20260504202556 | 79 | 121 | 4.0 | 4.0 | 0.00 | 0.00 | 0.00 | 38 | 1017.9 |
| 20260504202054 | 80 | 209 | 1.0 | 3.0 | 0.00 | 0.00 | 0.00 | 36 | 1018.0 |
| 20260504201550 | 79 | 146 | 1.0 | 3.0 | 0.00 | 0.00 | 0.00 | 38 | 1017.9 |
| 20260504201048 | 79 | 127 | 2.0 | 2.0 | 0.00 | 0.00 | 0.00 | 37 | 1018.1 |
| 20260504200544 | 81 | 127 | 2.0 | 2.0 | 0.00 | 0.00 | 0.00 | 38 | 1018.0 |
| 20260504200042 | 79 | 173 | 0.0 | 2.0 | 0.00 | 0.00 | 0.00 | 37 | 1018.0 |
| 20260504195537 | 80 | 85 | 2.0 | 3.0 | 0.00 | 0.00 | 0.00 | 40 | 1018.2 |
| 20260504195034 | 80 | 192 | 2.0 | 3.0 | 0.00 | 0.00 | 0.00 | 34 | 1018.2 |
| 20260504194531 | 81 | 89 | 2.0 | 2.0 | 0.00 | 0.00 | 0.00 | 37 | 1018.1 |
| 20260504194026 | 79 | 95 | 2.0 | 2.0 | 0.00 | 0.00 | 0.00 | 36 | 1018.2 |
| 20260504193523 | 79 | 20 | 1.0 | 3.0 | 0.00 | 0.00 | 0.00 | 36 | 1018.2 |
| 20260504193022 | 79 | 103 | 3.0 | 4.0 | 0.00 | 0.00 | 0.00 | 36 | 1018.6 |
| 20260504192520 | 78 | 112 | 2.0 | 3.0 | 0.00 | 0.00 | 0.00 | 43 | 1018.7 |
| 20260504192018 | 78 | 115 | 2.0 | 4.0 | 0.00 | 0.00 | 0.00 | 42 | 1018.6 |
| 20260504191515 | 79 | 115 | 4.0 | 5.0 | 0.00 | 0.00 | 0.00 | 38 | 1018.6 |
| 20260504191011 | 79 | 34 | 1.0 | 4.0 | 0.00 | 0.00 | 0.00 | 36 | 1018.8 |
| 20260504190507 | 79 | 121 | 3.0 | 4.0 | 0.00 | 0.00 | 0.00 | 36 | 1018.9 |
| 20260504190003 | 79 | 192 | 1.0 | 2.0 | 0.00 | 0.00 | 0.00 | 36 | 1019.0 |
| 20260504185501 | 79 | 154 | 2.0 | 3.0 | 0.00 | 0.00 | 0.00 | 36 | 1019.0 |
| 20260504184957 | 80 | 109 | 2.0 | 2.0 | 0.00 | 0.00 | 0.00 | 37 | 1019.2 |
| 20260504184452 | 79 | 48 | 2.0 | 2.0 | 0.00 | 0.00 | 0.00 | 36 | 1019.2 |
| 20260504183948 | 79 | 172 | 2.0 | 3.0 | 0.00 | 0.00 | 0.00 | 35 | 1019.2 |
| 20260504183446 | 79 | 89 | 0.0 | 2.0 | 0.00 | 0.00 | 0.00 | 35 | 1019.3 |
| 20260504182944 | 78 | 190 | 2.0 | 3.0 | 0.00 | 0.00 | 0.00 | 40 | 1019.4 |
| 20260504182440 | 80 | 99 | 2.0 | 2.0 | 0.00 | 0.00 | 0.00 | 41 | 1019.4 |
| 20260504181938 | 78 | 320 | 1.0 | 2.0 | 0.00 | 0.00 | 0.00 | 38 | 1019.5 |
| 20260504181434 | 78 | 269 | 0.0 | 2.0 | 0.00 | 0.00 | 0.00 | 40 | 1019.4 |
| 20260504180933 | 77 | 74 | 1.0 | 2.0 | 0.00 | 0.00 | 0.00 | 40 | 1019.5 |
| 20260504180432 | 76 | 205 | 2.0 | 2.0 | 0.00 | 0.00 | 0.00 | 40 | 1019.7 |
| 20260504175930 | 77 | 62 | 2.0 | 3.0 | 0.00 | 0.00 | 0.00 | 38 | 1019.8 |
| 20260504175426 | 76 | 339 | 0.0 | 3.0 | 0.00 | 0.00 | 0.00 | 40 | 1019.8 |
| 20260504174924 | 76 | 256 | 2.0 | 4.0 | 0.00 | 0.00 | 0.00 | 38 | 1019.8 |
| 20260504174421 | 76 | 107 | 2.0 | 4.0 | 0.00 | 0.00 | 0.00 | 40 | 1019.7 |
| 20260504173919 | 76 | 174 | 2.0 | 2.0 | 0.00 | 0.00 | 0.00 | 45 | 1019.9 |
| 20260504173415 | 75 | 95 | 2.0 | 3.0 | 0.00 | 0.00 | 0.00 | 41 | 1019.7 |
| 20260504172913 | 75 | 147 | 0.0 | 2.0 | 0.00 | 0.00 | 0.00 | 42 | 1020.0 |
| 20260504172408 | 75 | 213 | 2.0 | 4.0 | 0.00 | 0.00 | 0.00 | 39 | 1020.0 |
| 20260504171905 | 75 | 59 | 0.0 | 2.0 | 0.00 | 0.00 | 0.00 | 41 | 1020.0 |
| 20260504171402 | 73 | 179 | 2.0 | 3.0 | 0.00 | 0.00 | 0.00 | 40 | 1020.1 |
| 20260504170859 | 74 | 241 | 2.0 | 3.0 | 0.00 | 0.00 | 0.00 | 38 | 1020.1 |
| 20260504170355 | 73 | 177 | 2.0 | 3.0 | 0.00 | 0.00 | 0.00 | 39 | 1020.3 |
| 20260504160314 | 70 | 27 | 1.0 | 2.0 | 0.00 | 0.00 | 0.00 | 46 | 1020.9 |
| 20260504150739 | 66 | 153 | 2.0 | 2.0 | 0.00 | 0.00 | 0.00 | 54 | 1021.4 |
| 20260504150236 | 66 | 175 | 2.0 | 2.0 | 0.00 | 0.00 | 0.00 | 57 | 1021.4 |
| 20260504141205 | 61 | 80 | 2.0 | 3.0 | 0.00 | 0.00 | 0.00 | 68 | 1021.7 |
| 20260504140702 | 60 | 134 | 1.0 | 3.0 | 0.00 | 0.00 | 0.00 | 72 | 1021.6 |
| 20260504140157 | 59 | 63 | 1.0 | 3.0 | 0.00 | 0.00 | 0.00 | 76 | 1021.7 |
| 20260504130626 | 51 | 110 | 2.0 | 2.0 | 0.00 | 0.00 | 0.00 | 95 | 1021.5 |
| 20260504130123 | 50 | 105 | 2.0 | 2.0 | 0.00 | 0.00 | 0.00 | 95 | 1021.6 |
| 20260504110514 | 44 | 120 | 1.0 | 2.0 | 0.00 | 0.00 | 0.00 | 97 | 1020.8 |
| 20260504100436 | 44 | 118 | 2.0 | 2.0 | 0.00 | 0.00 | 0.00 | 95 | 1020.7 |
| 20260504081829 | 45 | 101 | 2.0 | 2.0 | 0.00 | 0.00 | 0.00 | 93 | 1021.2 |
| 20260504081326 | 45 | 113 | 2.0 | 2.0 | 0.00 | 0.00 | 0.00 | 93 | 1021.0 |
| 20260504080821 | 45 | 136 | 1.0 | 2.0 | 0.00 | 0.00 | 0.00 | 93 | 1020.7 |
| 20260504080319 | 45 | 107 | 2.0 | 2.0 | 0.00 | 0.00 | 0.00 | 93 | 1020.6 |
| 20260504070246 | 46 | 106 | 2.0 | 2.0 | 0.00 | 0.00 | 0.00 | 93 | 1021.4 |
| 20260504060207 | 47 | 131 | 2.0 | 2.0 | 0.00 | 0.00 | 0.00 | 89 | 1021.3 |
| 20260504050635 | 49 | 126 | 1.0 | 2.0 | 0.00 | 0.00 | 0.00 | 85 | 1021.5 |
| 20260504050132 | 49 | 110 | 1.0 | 2.0 | 0.00 | 0.00 | 0.00 | 84 | 1021.6 |
| 20260504045624 | 49 | 132 | 1.0 | 2.0 | 0.00 | 0.00 | 0.00 | 83 | 1021.7 |
| 20260504045123 | 49 | 131 | 0.0 | 2.0 | 0.00 | 0.00 | 0.00 | 83 | 1021.8 |
| 20260504044622 | 49 | 103 | 1.0 | 2.0 | 0.00 | 0.00 | 0.00 | 84 | 1021.8 |
| 20260504044118 | 50 | 111 | 1.0 | 2.0 | 0.00 | 0.00 | 0.00 | 84 | 1022.0 |
| 20260504043615 | 50 | 93 | 0.0 | 1.0 | 0.00 | 0.00 | 0.00 | 84 | 1022.0 |
| 20260504043113 | 50 | 107 | 1.0 | 2.0 | 0.00 | 0.00 | 0.00 | 83 | 1022.0 |
| 20260504042610 | 50 | 115 | 0.0 | 1.0 | 0.00 | 0.00 | 0.00 | 83 | 1021.8 |
| 20260504042107 | 50 | 104 | 1.0 | 1.0 | 0.00 | 0.00 | 0.00 | 83 | 1021.8 |
| 20260504041602 | 50 | 86 | 0.0 | 1.0 | 0.00 | 0.00 | 0.00 | 83 | 1021.7 |
| 20260504041059 | 50 | 100 | 1.0 | 2.0 | 0.00 | 0.00 | 0.00 | 82 | 1021.9 |
| 20260504040556 | 50 | 118 | 0.0 | 2.0 | 0.00 | 0.00 | 0.00 | 80 | 1021.8 |
| 20260504040053 | 51 | 101 | 0.0 | 2.0 | 0.00 | 0.00 | 0.00 | 79 | 1021.8 |
| 20260504035549 | 51 | 109 | 1.0 | 2.0 | 0.00 | 0.00 | 0.00 | 78 | 1021.8 |
| 20260504035046 | 51 | 109 | 0.0 | 2.0 | 0.00 | 0.00 | 0.00 | 77 | 1021.7 |
| 20260504034544 | 51 | 59 | 1.0 | 2.0 | 0.00 | 0.00 | 0.00 | 77 | 1021.8 |
| 20260504034040 | 51 | 114 | 1.0 | 2.0 | 0.00 | 0.00 | 0.00 | 78 | 1021.9 |
| 20260504033538 | 51 | 103 | 1.0 | 2.0 | 0.00 | 0.00 | 0.00 | 78 | 1021.9 |
| 20260504033035 | 51 | 112 | 2.0 | 2.0 | 0.00 | 0.00 | 0.00 | 76 | 1022.1 |
| 20260504032532 | 51 | 73 | 1.0 | 2.0 | 0.00 | 0.00 | 0.00 | 76 | 1021.9 |
| 20260504032029 | 52 | 81 | 0.0 | 2.0 | 0.00 | 0.00 | 0.00 | 75 | 1021.8 |
| 20260504031526 | 52 | 139 | 1.0 | 2.0 | 0.00 | 0.00 | 0.00 | 74 | 1021.7 |
| 20260504031022 | 52 | 81 | 1.0 | 1.0 | 0.00 | 0.00 | 0.00 | 73 | 1021.8 |
| 20260504030520 | 52 | 125 | 2.0 | 2.0 | 0.00 | 0.00 | 0.00 | 72 | 1021.8 |
| 20260504030016 | 52 | 91 | 1.0 | 2.0 | 0.00 | 0.00 | 0.00 | 72 | 1021.6 |
| 20260504025513 | 53 | 94 | 0.0 | 1.0 | 0.00 | 0.00 | 0.00 | 72 | 1021.7 |
| 20260504025010 | 53 | 142 | 1.0 | 2.0 | 0.00 | 0.00 | 0.00 | 71 | 1021.8 |
| 20260504024507 | 53 | 133 | 0.0 | 1.0 | 0.00 | 0.00 | 0.00 | 72 | 1021.8 |
| 20260504024004 | 53 | 138 | 1.0 | 2.0 | 0.00 | 0.00 | 0.00 | 72 | 1021.8 |
| 20260504023500 | 53 | 94 | 1.0 | 2.0 | 0.00 | 0.00 | 0.00 | 72 | 1021.8 |
| 20260504022956 | 53 | 92 | 1.0 | 1.0 | 0.00 | 0.00 | 0.00 | 72 | 1021.6 |
| 20260504022452 | 54 | 89 | 0.0 | 2.0 | 0.00 | 0.00 | 0.00 | 72 | 1021.6 |
| 20260504021949 | 54 | 128 | 1.0 | 2.0 | 0.00 | 0.00 | 0.00 | 73 | 1021.6 |
| 20260504021446 | 54 | 127 | 1.0 | 2.0 | 0.00 | 0.00 | 0.00 | 73 | 1021.5 |
| 20260504020944 | 54 | 97 | 0.0 | 1.0 | 0.00 | 0.00 | 0.00 | 72 | 1021.4 |
| 20260504020440 | 55 | 72 | 0.0 | 2.0 | 0.00 | 0.00 | 0.00 | 72 | 1021.2 |
| 20260504015937 | 55 | 76 | 1.0 | 2.0 | 0.00 | 0.00 | 0.00 | 70 | 1021.1 |
| 20260504015433 | 55 | 127 | 0.0 | 2.0 | 0.00 | 0.00 | 0.00 | 69 | 1021.1 |
| 20260504014929 | 55 | 123 | 1.0 | 2.0 | 0.00 | 0.00 | 0.00 | 67 | 1021.1 |
| 20260504014425 | 56 | 141 | 0.0 | 2.0 | 0.00 | 0.00 | 0.00 | 65 | 1021.1 |
| 20260504013922 | 56 | 125 | 1.0 | 1.0 | 0.00 | 0.00 | 0.00 | 64 | 1021.0 |
| 20260504013421 | 56 | 48 | 2.0 | 2.0 | 0.00 | 0.00 | 0.00 | 63 | 1020.9 |
| 20260504012916 | 57 | 124 | 1.0 | 2.0 | 0.00 | 0.00 | 0.00 | 61 | 1020.7 |
| 20260504012414 | 57 | 122 | 1.0 | 2.0 | 0.00 | 0.00 | 0.00 | 60 | 1020.7 |
| 20260504011911 | 57 | 116 | 0.0 | 2.0 | 0.00 | 0.00 | 0.00 | 59 | 1020.7 |
| 20260504011408 | 58 | 131 | 1.0 | 2.0 | 0.00 | 0.00 | 0.00 | 59 | 1020.8 |
| 20260504010904 | 58 | 120 | 1.0 | 1.0 | 0.00 | 0.00 | 0.00 | 57 | 1020.5 |
| 20260504010400 | 59 | 126 | 0.0 | 1.0 | 0.00 | 0.00 | 0.00 | 56 | 1020.5 |
| 20260504005856 | 59 | 129 | 1.0 | 2.0 | 0.00 | 0.00 | 0.00 | 56 | 1020.3 |
| 20260504005353 | 59 | 113 | 0.0 | 1.0 | 0.00 | 0.00 | 0.00 | 55 | 1020.4 |
| 20260504004851 | 60 | 113 | 0.0 | 1.0 | 0.00 | 0.00 | 0.00 | 55 | 1020.5 |
| 20260504004348 | 60 | 127 | 0.0 | 1.0 | 0.00 | 0.00 | 0.00 | 53 | 1020.5 |
| 20260504003845 | 61 | 82 | 0.0 | 1.0 | 0.00 | 0.00 | 0.00 | 51 | 1020.3 |
| 20260504003342 | 61 | 103 | 0.0 | 1.0 | 0.00 | 0.00 | 0.00 | 52 | 1020.2 |
| 20260504002838 | 62 | 134 | 2.0 | 2.0 | 0.00 | 0.00 | 0.00 | 50 | 1020.3 |
| 20260504002335 | 62 | 89 | 1.0 | 1.0 | 0.00 | 0.00 | 0.00 | 51 | 1020.3 |
| 20260504001833 | 63 | 133 | 0.0 | 1.0 | 0.00 | 0.00 | 0.00 | 48 | 1020.3 |
| 20260504001330 | 63 | 138 | 1.0 | 2.0 | 0.00 | 0.00 | 0.00 | 46 | 1020.1 |
| 20260504000827 | 64 | 155 | 1.0 | 1.0 | 0.00 | 0.00 | 0.00 | 45 | 1020.1 |
| 20260504000324 | 64 | 125 | 0.0 | 1.0 | 0.00 | 0.00 | 0.00 | 44 | 1020.1 |
| 20260503235821 | 64 | 135 | 1.0 | 1.0 | 0.00 | 0.00 | 0.00 | 44 | 1020.3 |
| 20260503235319 | 65 | 136 | 0.0 | 1.0 | 0.00 | 0.00 | 0.00 | 44 | 1020.2 |
| 20260503234816 | 65 | 55 | 0.0 | 1.0 | 0.00 | 0.00 | 0.00 | 44 | 1020.2 |
| 20260503234314 | 66 | 157 | 0.0 | 1.0 | 0.00 | 0.00 | 0.00 | 46 | 1020.1 |
| 20260503233811 | 66 | 147 | 0.0 | 1.0 | 0.00 | 0.00 | 0.00 | 45 | 1020.2 |
| 20260503233307 | 66 | 89 | 0.0 | 1.0 | 0.00 | 0.00 | 0.00 | 46 | 1020.1 |
| 20260503232804 | 66 | 151 | 0.0 | 1.0 | 0.00 | 0.00 | 0.00 | 47 | 1020.0 |
| 20260503232301 | 67 | 134 | 0.0 | 0.0 | 0.00 | 0.00 | 0.00 | 43 | 1020.1 |
| 20260503231759 | 67 | 149 | 1.0 | 2.0 | 0.00 | 0.00 | 0.00 | 41 | 1019.9 |
| 20260503231256 | 67 | 89 | 0.0 | 2.0 | 0.00 | 0.00 | 0.00 | 46 | 1020.1 |
| 20260503230751 | 67 | 118 | 0.0 | 1.0 | 0.00 | 0.00 | 0.00 | 43 | 1020.1 |
| 20260503230249 | 67 | 191 | 1.0 | 2.0 | 0.00 | 0.00 | 0.00 | 44 | 1020.2 |
| 20260503225746 | 68 | 190 | 1.0 | 2.0 | 0.00 | 0.00 | 0.00 | 43 | 1020.1 |
| 20260503225246 | 69 | 147 | 2.0 | 2.0 | 0.00 | 0.00 | 0.00 | 39 | 1020.2 |
| 20260503224743 | 69 | 322 | 0.0 | 1.0 | 0.00 | 0.00 | 0.00 | 39 | 1020.2 |
| 20260503224241 | 69 | 44 | 0.0 | 2.0 | 0.00 | 0.00 | 0.00 | 39 | 1020.1 |
| 20260503223739 | 68 | 146 | 1.0 | 2.0 | 0.00 | 0.00 | 0.00 | 39 | 1020.2 |
| 20260503223236 | 69 | 147 | 2.0 | 2.0 | 0.00 | 0.00 | 0.00 | 38 | 1020.2 |
| 20260503222732 | 70 | 113 | 0.0 | 2.0 | 0.00 | 0.00 | 0.00 | 38 | 1020.2 |
| 20260503222230 | 70 | 292 | 1.0 | 1.0 | 0.00 | 0.00 | 0.00 | 37 | 1020.2 |
| 20260503221728 | 71 | 167 | 0.0 | 2.0 | 0.00 | 0.00 | 0.00 | 35 | 1020.3 |
| 20260503221226 | 75 | 49 | 2.0 | 2.0 | 0.00 | 0.00 | 0.00 | 33 | 1020.3 |
| 20260503220722 | 76 | 154 | 1.0 | 1.0 | 0.00 | 0.00 | 0.00 | 34 | 1020.2 |
| 20260503220219 | 75 | 223 | 2.0 | 2.0 | 0.00 | 0.00 | 0.00 | 33 | 1020.3 |
| 20260503215716 | 74 | 16 | 1.0 | 3.0 | 0.00 | 0.00 | 0.00 | 33 | 1020.3 |
| 20260503215213 | 75 | 336 | 0.0 | 2.0 | 0.00 | 0.00 | 0.00 | 31 | 1020.4 |
| 20260503214711 | 74 | 203 | 0.0 | 4.0 | 0.00 | 0.00 | 0.00 | 31 | 1020.4 |
| 20260503214207 | 75 | 70 | 2.0 | 3.0 | 0.00 | 0.00 | 0.00 | 33 | 1020.4 |
| 20260503213706 | 76 | 57 | 1.0 | 2.0 | 0.00 | 0.00 | 0.00 | 32 | 1020.2 |
| 20260503213202 | 75 | 225 | 1.0 | 3.0 | 0.00 | 0.00 | 0.00 | 33 | 1020.5 |
| 20260503212659 | 76 | 261 | 0.0 | 2.0 | 0.00 | 0.00 | 0.00 | 31 | 1020.4 |
| 20260503212157 | 74 | 218 | 1.0 | 2.0 | 0.00 | 0.00 | 0.00 | 35 | 1020.5 |
| 20260503211655 | 76 | 334 | 2.0 | 3.0 | 0.00 | 0.00 | 0.00 | 34 | 1020.5 |
| 20260503211155 | 76 | 323 | 1.0 | 3.0 | 0.00 | 0.00 | 0.00 | 35 | 1020.4 |
| 20260503210651 | 75 | 231 | 1.0 | 2.0 | 0.00 | 0.00 | 0.00 | 34 | 1020.5 |
| 20260503210148 | 75 | 255 | 1.0 | 3.0 | 0.00 | 0.00 | 0.00 | 35 | 1020.6 |